createdAt,value
2022-08-05T00:02:19.437Z,66.34
2022-08-05T00:07:59.034Z,64.73
2022-08-05T00:12:48.528Z,63.67
2022-08-05T00:17:59.102Z,61.93
2022-08-05T00:23:12.872Z,60.63
2022-08-05T00:28:21.145Z,59.84
2022-08-05T00:34:56.799Z,59.62
2022-08-05T00:38:55.218Z,59.09
2022-08-05T00:44:09.560Z,59.50
2022-08-05T00:49:14.019Z,59.47
2022-08-05T00:54:16.779Z,58.82
2022-08-05T00:59:19.239Z,58.18
2022-08-05T01:04:26.612Z,57.50
2022-08-05T01:09:35.591Z,56.73
2022-08-05T01:14:59.740Z,56.26
2022-08-05T01:22:15.441Z,56.52
2022-08-05T01:27:28.055Z,57.04
2022-08-05T01:32:39.141Z,57.46
2022-08-05T01:37:54.595Z,57.13
2022-08-05T01:42:59.154Z,57.88
2022-08-05T01:48:03.329Z,57.86
2022-08-05T01:53:16.037Z,58.15
2022-08-05T01:58:45.374Z,57.76
2022-08-05T02:03:57.121Z,58.32
2022-08-05T02:09:00.503Z,58.00
2022-08-05T02:14:16.995Z,56.05
2022-08-05T02:19:28.210Z,55.60
2022-08-05T02:24:39.350Z,56.01
2022-08-05T02:29:58.564Z,56.67
2022-08-05T02:35:14.536Z,56.46
2022-08-05T02:40:27.808Z,56.57
2022-08-05T02:45:52.366Z,57.14
2022-08-05T02:50:53.482Z,57.22
2022-08-05T02:56:02.110Z,57.41
2022-08-05T03:07:07.220Z,57.44
2022-08-05T03:12:51.754Z,57.62
2022-08-05T03:18:07.764Z,58.25
2022-08-05T03:23:15.271Z,58.33
2022-08-05T03:28:35.287Z,58.85
2022-08-05T03:33:53.147Z,58.65
2022-08-05T03:39:12.998Z,59.03
2022-08-05T03:44:37.249Z,60.00
2022-08-05T03:49:51.858Z,60.38
2022-08-05T03:56:06.286Z,61.70
2022-08-05T04:00:57.295Z,61.69
2022-08-05T04:06:13.427Z,62.31
2022-08-05T04:11:19.024Z,62.70
2022-08-05T04:16:32.556Z,63.22
2022-08-05T04:22:10.163Z,63.03
2022-08-05T04:27:09.787Z,63.20
2022-08-05T04:32:33.245Z,63.39
2022-08-05T04:38:02.710Z,63.59
2022-08-05T04:43:16.805Z,63.67
2022-08-05T04:48:27.706Z,63.46
2022-08-05T04:58:49.846Z,63.64
2022-08-05T05:04:03.705Z,63.94
2022-08-05T05:09:17.657Z,64.16
2022-08-05T05:14:31.942Z,64.41
2022-08-05T05:19:47.315Z,64.55
2022-08-05T05:25:01.310Z,64.23
2022-08-05T05:30:29.466Z,64.61
2022-08-05T05:35:42.567Z,64.28
2022-08-05T05:40:51.424Z,64.06
2022-08-05T05:46:13.668Z,64.21
2022-08-05T05:51:27.804Z,64.33
2022-08-05T05:56:44.308Z,63.72
2022-08-05T06:01:57.639Z,63.75
2022-08-05T06:07:01.591Z,63.82
2022-08-05T06:12:09.847Z,63.88
2022-08-05T06:17:22.215Z,63.71
2022-08-05T06:22:36.889Z,63.43
2022-08-05T06:28:10.719Z,63.31
2022-08-05T06:33:19.430Z,63.21
2022-08-05T06:38:35.593Z,63.30
2022-08-05T06:43:58.622Z,62.77
2022-08-05T06:49:16.141Z,62.70
2022-08-05T06:54:31.354Z,62.36
2022-08-05T06:59:38.776Z,62.21
2022-08-05T07:04:47.935Z,62.53
2022-08-05T07:09:58.196Z,62.03
2022-08-05T07:20:50.581Z,61.07
2022-08-05T07:26:03.160Z,60.05
2022-08-05T07:31:08.561Z,59.82
2022-08-05T07:36:25.945Z,59.31
2022-08-05T07:42:14.353Z,59.19
2022-08-05T07:47:15.519Z,58.81
2022-08-05T07:52:28.561Z,59.22
2022-08-05T07:57:58.937Z,58.99
2022-08-05T08:03:19.009Z,58.10
2022-08-05T08:08:30.188Z,58.25
2022-08-05T08:13:49.258Z,57.72
2022-08-05T08:19:02.877Z,56.18
2022-08-05T08:24:13.573Z,55.39
2022-08-05T08:30:04.231Z,55.80
2022-08-05T08:40:14.484Z,56.18
2022-08-05T08:45:44.995Z,55.70
2022-08-05T08:51:07.510Z,55.05
2022-08-05T08:56:37.049Z,54.40
2022-08-05T09:01:57.475Z,54.61
2022-08-05T09:07:19.703Z,54.62
2022-08-05T09:12:41.331Z,53.83
2022-08-05T09:17:52.946Z,53.83
2022-08-05T09:23:18.794Z,52.75
2022-08-05T09:28:33.373Z,52.67
2022-08-05T09:34:04.628Z,53.10
2022-08-05T09:39:22.176Z,53.07
2022-08-05T09:44:50.578Z,53.41
2022-08-05T09:55:58.101Z,53.71
2022-08-05T10:01:31.937Z,54.76
2022-08-05T10:06:37.206Z,55.35
2022-08-05T10:11:53.820Z,55.93
2022-08-05T10:17:37.840Z,56.66
2022-08-05T10:22:59.034Z,55.81
2022-08-05T10:28:12.926Z,56.45
2022-08-05T10:39:00.066Z,57.39
2022-08-05T10:44:15.279Z,57.55
2022-08-05T10:49:26.868Z,56.56
2022-08-05T10:55:02.638Z,57.77
2022-08-05T11:00:24.840Z,58.39
2022-08-05T11:05:37.640Z,57.88
2022-08-05T11:10:50.407Z,58.24
2022-08-05T11:16:33.706Z,58.38
2022-08-05T11:21:59.917Z,57.94
2022-08-05T11:27:37.069Z,58.34
2022-08-05T11:39:03.392Z,58.67
2022-08-05T11:44:21.612Z,58.10
2022-08-05T11:49:51.363Z,58.23
2022-08-05T11:55:07.786Z,58.22
2022-08-05T12:00:32.714Z,56.02
2022-08-05T12:05:46.261Z,57.49
2022-08-05T12:10:55.066Z,58.22
2022-08-05T12:16:15.647Z,57.70
2022-08-05T12:21:50.095Z,57.24
2022-08-05T12:26:55.081Z,58.95
2022-08-05T12:32:04.410Z,58.33
2022-08-05T12:37:21.939Z,58.56
2022-08-05T12:42:39.098Z,58.99
2022-08-05T12:48:17.107Z,59.17
2022-08-05T12:53:18.611Z,59.91
2022-08-05T12:58:52.297Z,59.49
2022-08-05T13:04:02.096Z,59.84
2022-08-05T13:09:13.868Z,59.86
2022-08-05T13:14:36.347Z,59.52
2022-08-05T13:19:52.649Z,56.53
2022-08-05T13:30:33.047Z,58.69
2022-08-05T13:35:54.716Z,57.99
2022-08-05T13:41:11.259Z,57.85
2022-08-05T13:46:35.796Z,59.18
2022-08-05T13:51:56.574Z,58.39
2022-08-05T13:57:17.288Z,57.24
2022-08-05T14:02:29.864Z,57.86
2022-08-05T14:08:00.645Z,57.54
2022-08-05T14:13:10.408Z,57.01
2022-08-05T14:18:38.370Z,58.25
2022-08-05T14:23:46.753Z,57.68
2022-08-05T14:28:52.357Z,57.65
2022-08-05T14:34:00.857Z,58.00
2022-08-05T14:39:11.061Z,57.73
2022-08-05T14:44:20.221Z,56.65
2022-08-05T14:49:58.546Z,56.17
2022-08-05T14:55:19.355Z,56.88
2022-08-05T15:00:29.340Z,56.80
2022-08-05T15:06:07.515Z,56.61
2022-08-05T15:11:04.568Z,53.79
2022-08-05T15:16:27.062Z,54.31
2022-08-05T15:21:46.044Z,56.25
2022-08-05T15:26:50.659Z,56.56
2022-08-05T15:32:02.309Z,57.00
2022-08-05T15:37:14.714Z,53.12
2022-08-05T15:42:54.665Z,48.88
2022-08-05T15:53:05.540Z,46.25
2022-08-05T15:58:16.842Z,48.85
2022-08-05T16:03:22.518Z,56.59
2022-08-05T16:08:31.799Z,56.46
2022-08-05T16:13:35.406Z,57.39
2022-08-05T16:18:52.457Z,57.10
2022-08-05T16:24:03.444Z,59.11
2022-08-05T16:29:08.439Z,58.29
2022-08-05T16:40:05.058Z,61.50
2022-08-05T16:46:05.101Z,62.08
2022-08-05T16:50:46.135Z,62.66
2022-08-05T16:56:01.335Z,63.33
2022-08-05T17:01:11.474Z,63.64
2022-08-05T17:06:18.209Z,66.29
2022-08-05T17:11:46.056Z,65.00
2022-08-05T17:16:57.016Z,64.48
2022-08-05T17:22:27.360Z,64.53
2022-08-05T17:27:33.373Z,65.45
2022-08-05T17:32:36.618Z,66.06
2022-08-05T17:38:00.417Z,65.71
2022-08-05T17:43:18.024Z,66.03
2022-08-05T17:48:59.726Z,67.21
2022-08-05T17:54:10.238Z,66.47
2022-08-05T17:59:14.967Z,65.48
2022-08-05T18:04:30.980Z,64.97
2022-08-05T18:10:10.083Z,65.73
2022-08-05T18:15:27.176Z,66.13
2022-08-05T18:20:32.745Z,66.16
2022-08-05T18:25:39.192Z,65.49
2022-08-05T18:30:54.610Z,65.31
2022-08-05T18:41:55.217Z,63.71
2022-08-05T18:47:10.589Z,62.90
2022-08-05T18:52:36.307Z,62.40
2022-08-05T18:57:53.934Z,61.95
2022-08-05T19:03:53.256Z,61.11
2022-08-05T19:08:53.045Z,61.44
2022-08-05T19:14:01.062Z,61.40
2022-08-05T19:19:24.843Z,60.61
2022-08-05T19:24:34.579Z,59.83
2022-08-05T19:29:38.264Z,60.14
2022-08-05T19:34:54.693Z,60.00
2022-08-05T19:40:02.748Z,59.45
2022-08-05T19:45:20.640Z,59.03
2022-08-05T19:50:36.653Z,58.57
2022-08-05T19:56:15.738Z,57.92
2022-08-05T20:06:59.252Z,57.69
2022-08-05T20:12:06.274Z,57.83
2022-08-05T20:17:23.458Z,56.10
2022-08-05T20:22:29.473Z,56.83
2022-08-05T20:27:41.585Z,56.41
2022-08-05T20:32:58.855Z,56.07
2022-08-05T20:38:22.603Z,55.69
2022-08-05T20:43:58.789Z,56.21
2022-08-05T20:49:02.467Z,55.64
2022-08-05T20:54:14.169Z,55.71
2022-08-05T20:59:26.865Z,56.34
2022-08-05T21:04:36.660Z,56.77
2022-08-05T21:09:54.307Z,57.37
2022-08-05T21:15:03.626Z,57.83
2022-08-05T21:20:11.907Z,58.10
2022-08-05T21:25:19.551Z,58.72
2022-08-05T21:30:29.920Z,58.95
2022-08-05T21:35:43.709Z,58.77
2022-08-05T21:41:14.447Z,58.76
2022-08-05T21:46:34.775Z,58.29
2022-08-05T21:52:22.797Z,58.85
2022-08-05T21:57:31.349Z,58.79
2022-08-05T22:02:41.823Z,58.62
2022-08-05T22:07:59.428Z,58.80
2022-08-05T22:14:18.209Z,59.15
2022-08-05T22:18:35.498Z,58.86
2022-08-05T22:24:08.819Z,58.70
2022-08-05T22:29:30.735Z,58.31
2022-08-05T22:34:41.723Z,58.63
2022-08-05T22:39:50.487Z,58.11
2022-08-05T22:44:59.138Z,57.47
2022-08-05T22:50:19.961Z,57.35
2022-08-05T22:55:37.182Z,56.57
2022-08-05T23:01:01.057Z,55.71
2022-08-05T23:06:04.972Z,55.79
2022-08-05T23:11:14.540Z,56.43
2022-08-05T23:16:25.976Z,56.11
2022-08-05T23:21:42.810Z,55.55
2022-08-05T23:26:55.305Z,54.74
2022-08-05T23:32:15.994Z,54.83
2022-08-05T23:37:23.870Z,54.96
2022-08-05T23:42:32.299Z,55.80
2022-08-05T23:47:36.555Z,56.63
2022-08-05T23:52:55.159Z,56.90
2022-08-05T23:58:03.141Z,57.19
